Rey, Iran
Current Conditions -  °F | °C
As of 3:30 PM on Friday 24 Oct 2014 (Local Time) from OIII Reporting Station
Clear Clear  
Wind Chill: 75°   Ceiling: Unl
Heat Index: 75°   Visibility: 6mi
Dew Point: 25°   Wind: 21mph
Humidity: 15%   Direction: 260°W
Pressure: 29.97"   Gusts: NA
Location:  35.6°N, 51.44°E
Report Text: OIII 241230Z 26018KT CAVOK 24/M04 Q1015 A3000 NOSIG
Loading
Personal Weather Stations






























Interactive Weather Map
Tropical Storm Tracking
New forecast layout! Learn more

10-Day Weather Forecast

Advertisements
Track Severe Weather on mobile